createdAt,value
2018-07-21T01:34:45.108Z,20.3
2018-07-21T02:04:36.540Z,20.23
2018-07-21T02:44:28.528Z,19.94
2018-07-21T02:54:30.602Z,20.09
2018-07-21T03:14:28.550Z,20.34
2018-07-21T04:54:34.561Z,19.97
2018-07-21T05:14:28.521Z,20.08
2018-07-21T05:44:28.561Z,20.84
2018-07-21T06:04:28.550Z,21.5
2018-07-21T06:54:38.808Z,25.42
2018-07-21T07:14:28.570Z,26.52
2018-07-21T07:44:29.595Z,28.85
2018-07-21T07:54:29.707Z,27.86
2018-07-21T08:04:43.151Z,29.31
2018-07-21T08:14:28.691Z,29.86
2018-07-21T08:24:28.577Z,29.16
2018-07-21T08:34:28.678Z,29.23
2018-07-21T08:44:33.745Z,28.88
2018-07-21T08:54:28.584Z,29.63
2018-07-21T09:04:28.563Z,29.28
2018-07-21T09:14:28.628Z,29.2
2018-07-21T09:24:28.593Z,28.9
2018-07-21T09:34:28.666Z,29.11
2018-07-21T09:44:28.584Z,29.7
2018-07-21T09:54:28.780Z,29.82
2018-07-21T10:04:28.916Z,29.75
2018-07-21T10:14:28.595Z,30.02
2018-07-21T10:24:28.626Z,30.12
2018-07-21T10:34:28.611Z,30.4
2018-07-21T10:44:28.946Z,30.37
2018-07-21T10:54:28.640Z,30.45
2018-07-21T11:04:28.591Z,30.86
2018-07-21T11:14:28.825Z,31.12
2018-07-21T11:24:28.659Z,31.54
2018-07-21T11:34:28.650Z,31.35
2018-07-21T11:44:28.665Z,31.23
2018-07-21T11:54:28.620Z,31.01
2018-07-21T12:04:28.698Z,30.83
2018-07-21T12:14:28.730Z,30.69
2018-07-21T12:24:28.633Z,30.69
2018-07-21T12:34:28.680Z,30.98
2018-07-21T12:44:28.653Z,31.05
2018-07-21T12:54:28.637Z,31.09
2018-07-21T13:04:28.638Z,31.4
2018-07-21T13:14:28.666Z,31.99
2018-07-21T13:24:28.681Z,32.51
2018-07-21T13:34:28.706Z,33.19
2018-07-21T13:44:28.731Z,33.33
2018-07-21T13:54:28.784Z,33.33
2018-07-21T14:04:28.743Z,33.03
2018-07-21T14:14:28.745Z,32.59
2018-07-21T14:24:28.848Z,32.03
2018-07-21T14:34:28.752Z,32.11
2018-07-21T14:44:29.147Z,32.24
2018-07-21T14:54:28.747Z,32.35
2018-07-21T15:04:28.897Z,31.58
2018-07-21T15:14:28.746Z,31.15
2018-07-21T15:24:28.814Z,30.72
2018-07-21T15:34:28.789Z,30.59
2018-07-21T15:44:28.847Z,29.59
2018-07-21T15:54:28.993Z,28.68
2018-07-21T16:04:29.126Z,27.88
2018-07-21T16:14:29.083Z,27.48
2018-07-21T16:24:29.008Z,26.32
2018-07-21T16:34:30.034Z,25.97
2018-07-21T16:44:28.772Z,26.11
2018-07-21T16:54:28.780Z,25.42
2018-07-21T17:04:37.456Z,24.94
2018-07-21T17:14:35.788Z,24.76
2018-07-21T17:24:28.879Z,24.38
2018-07-21T17:34:28.817Z,24.13
2018-07-21T17:44:28.782Z,23.95
2018-07-21T17:54:28.826Z,23.87
2018-07-21T18:04:28.770Z,23.65
2018-07-21T18:14:28.731Z,23.55
2018-07-21T18:24:28.767Z,23.46
2018-07-21T18:34:32.098Z,23.32
2018-07-21T18:44:28.782Z,22.87
2018-07-21T18:54:29.793Z,22.86
2018-07-21T19:04:28.858Z,22.64
2018-07-21T19:14:29.640Z,22.52
2018-07-21T19:24:30.341Z,22.47
2018-07-21T19:34:29.616Z,22.47
2018-07-21T19:44:29.661Z,22.2
2018-07-21T19:54:28.704Z,22.28
2018-07-21T20:04:28.770Z,21.83
2018-07-21T20:14:28.797Z,21.61
2018-07-21T20:24:28.821Z,21.38
2018-07-21T20:34:28.772Z,21.17
2018-07-21T20:44:28.802Z,21.01
2018-07-21T20:54:28.784Z,20.83
2018-07-21T21:04:28.777Z,20.91
2018-07-21T21:14:28.873Z,20.95
2018-07-21T21:24:28.820Z,20.58
2018-07-21T21:34:28.778Z,20.23
2018-07-21T21:44:28.830Z,19.75
2018-07-21T21:54:28.859Z,19.72
2018-07-21T22:04:28.906Z,19.51
2018-07-21T22:14:28.896Z,19.25
2018-07-21T22:24:28.755Z,19.11
2018-07-21T22:34:28.878Z,18.95
2018-07-21T22:44:28.847Z,18.91
2018-07-21T22:54:28.806Z,18.87
2018-07-21T23:14:46.589Z,18.82
2018-07-21T23:24:34.781Z,18.67
2018-07-21T23:34:30.882Z,18.65
2018-07-21T23:44:29.166Z,18.61
